Time;durP1;ratioP1;P1;durP2;ratioP2;P2;SDS_P1;SDS_P2;PMS_P1;PMS_P2;Temp;Humidity;BMP_temperature;BMP_pressure;BME280_temperature;BME280_humidity;BME280_pressure;Samples;Min_cycle;Max_cycle;Signal;HPM_P1;HPM_P2
2023/12/18 00:01:40;;;;;;;14.35;7.60;;;;;;;;;;5030072;28;20076;-86
2023/12/18 00:04:07;;;;;;;19.90;9.23;;;;;;;;;;5044288;28;20120;-86
2023/12/18 00:06:33;;;;;;;13.35;8.85;;;;;;;;;;5013744;28;20540;-86
2023/12/18 00:08:59;;;;;;;15.68;9.05;;;;;;;;;;5009212;28;20087;-86
2023/12/18 00:11:25;;;;;;;17.15;8.77;;;;;;;;;;5030158;28;20079;-86
2023/12/18 00:13:51;;;;;;;13.13;6.55;;;;;;;;;;5028590;28;20029;-86
2023/12/18 00:16:17;;;;;;;6.93;3.85;;;;;;;;;;5015355;28;20504;-86
2023/12/18 00:18:43;;;;;;;20.80;9.20;;;;;;;;;;5029932;28;20055;-86
2023/12/18 00:21:09;;;;;;;10.70;6.30;;;;;;;;;;5027320;28;20087;-86
2023/12/18 00:23:35;;;;;;;20.52;10.07;;;;;;;;;;5026520;28;20508;-86
2023/12/18 00:26:01;;;;;;;9.85;5.30;;;;;;;;;;5007654;28;20041;-86
2023/12/18 00:28:27;;;;;;;20.23;8.95;;;;;;;;;;5026367;28;20550;-86
2023/12/18 00:30:53;;;;;;;15.18;7.82;;;;;;;;;;5027361;28;20043;-86
2023/12/18 00:33:19;;;;;;;17.25;8.07;;;;;;;;;;5012680;28;20039;-86
2023/12/18 00:35:45;;;;;;;15.90;8.50;;;;;;;;;;5027841;28;20045;-86
2023/12/18 00:38:11;;;;;;;13.68;7.63;;;;;;;;;;5031800;28;20033;-86
2023/12/18 00:40:37;;;;;;;13.02;7.03;;;;;;;;;;5027807;28;20033;-86
2023/12/18 00:43:04;;;;;;;13.23;7.45;;;;;;;;;;5012376;28;20484;-86
2023/12/18 00:45:30;;;;;;;19.38;9.63;;;;;;;;;;5011142;28;20052;-86
2023/12/18 00:47:56;;;;;;;15.07;6.55;;;;;;;;;;5006707;28;20041;-86
2023/12/18 00:50:22;;;;;;;14.18;7.43;;;;;;;;;;5032127;28;20044;-86
2023/12/18 00:52:48;;;;;;;21.73;9.38;;;;;;;;;;5012085;28;20033;-85
2023/12/18 00:55:14;;;;;;;11.68;5.72;;;;;;;;;;5023598;28;20040;-86
2023/12/18 00:57:40;;;;;;;15.93;8.27;;;;;;;;;;5025327;28;20037;-86
2023/12/18 01:00:06;;;;;;;17.58;8.43;;;;;;;;;;5023709;28;20128;-86
2023/12/18 01:02:32;;;;;;;15.93;8.02;;;;;;;;;;5025118;28;20037;-86
2023/12/18 01:04:58;;;;;;;16.15;8.77;;;;;;;;;;5026228;28;20124;-86
2023/12/18 01:07:24;;;;;;;10.20;5.47;;;;;;;;;;5011074;28;20037;-86
2023/12/18 01:09:50;;;;;;;13.20;6.72;;;;;;;;;;5026205;28;20032;-86
2023/12/18 01:12:16;;;;;;;15.65;8.25;;;;;;;;;;5026251;28;20045;-86
2023/12/18 01:14:44;;;;;;;14.60;7.25;;;;;;;;;;5043896;28;20037;-86
2023/12/18 01:17:11;;;;;;;15.15;8.63;;;;;;;;;;5026791;28;20049;-86
2023/12/18 01:19:37;;;;;;;17.48;8.20;;;;;;;;;;5010574;28;20052;-86
2023/12/18 01:22:03;;;;;;;14.63;7.28;;;;;;;;;;5027275;28;20053;-86
2023/12/18 01:24:29;;;;;;;16.00;7.35;;;;;;;;;;5010359;28;20038;-86
2023/12/18 01:26:55;;;;;;;10.48;5.82;;;;;;;;;;5027261;28;20040;-86
2023/12/18 01:29:21;;;;;;;12.07;5.72;;;;;;;;;;5030348;28;20116;-86
2023/12/18 01:31:47;;;;;;;12.02;6.50;;;;;;;;;;5026796;28;20033;-86
2023/12/18 01:34:13;;;;;;;15.55;6.85;;;;;;;;;;5027975;28;20080;-86
2023/12/18 01:36:39;;;;;;;13.68;7.13;;;;;;;;;;5012072;28;20068;-86
2023/12/18 01:39:06;;;;;;;13.25;7.97;;;;;;;;;;5012392;28;20118;-86
2023/12/18 01:41:32;;;;;;;11.13;6.47;;;;;;;;;;5027240;28;20041;-86
2023/12/18 01:43:58;;;;;;;11.98;7.50;;;;;;;;;;5030579;28;20063;-86
2023/12/18 01:46:24;;;;;;;14.93;6.75;;;;;;;;;;5028486;28;20041;-86
2023/12/18 01:48:51;;;;;;;17.50;7.00;;;;;;;;;;5026910;28;20033;-86
2023/12/18 01:51:18;;;;;;;18.58;8.35;;;;;;;;;;5028489;28;20037;-86
2023/12/18 01:53:45;;;;;;;8.80;5.30;;;;;;;;;;5027937;28;20546;-86
2023/12/18 01:56:12;;;;;;;16.30;7.55;;;;;;;;;;5022856;28;20041;-86
2023/12/18 01:58:39;;;;;;;14.23;7.85;;;;;;;;;;5027398;28;20037;-86
2023/12/18 02:01:05;;;;;;;16.02;8.07;;;;;;;;;;5008306;28;20087;-86
2023/12/18 02:03:31;;;;;;;17.52;5.93;;;;;;;;;;5030255;28;20045;-86
2023/12/18 02:05:57;;;;;;;14.10;7.88;;;;;;;;;;5026018;28;20412;-86
2023/12/18 02:08:24;;;;;;;11.45;6.43;;;;;;;;;;5013142;28;20099;-86
2023/12/18 02:10:51;;;;;;;17.33;7.63;;;;;;;;;;5011495;28;20154;-86
2023/12/18 02:13:17;;;;;;;11.68;6.38;;;;;;;;;;5009587;28;20041;-87
2023/12/18 02:15:43;;;;;;;10.30;6.82;;;;;;;;;;5008941;28;20112;-86
2023/12/18 02:18:09;;;;;;;17.30;7.45;;;;;;;;;;5004043;28;20422;-86
2023/12/18 02:20:35;;;;;;;12.65;7.97;;;;;;;;;;5026415;28;20037;-86
2023/12/18 02:23:02;;;;;;;21.27;9.10;;;;;;;;;;5025586;28;20111;-86
2023/12/18 02:25:28;;;;;;;15.93;7.95;;;;;;;;;;5027046;28;20037;-86
2023/12/18 02:27:54;;;;;;;12.05;5.63;;;;;;;;;;5025660;28;20036;-86
2023/12/18 02:30:22;;;;;;;11.80;7.35;;;;;;;;;;5013477;28;20085;-86
2023/12/18 02:32:48;;;;;;;6.63;4.93;;;;;;;;;;5025623;28;20041;-86
2023/12/18 02:35:14;;;;;;;15.60;8.23;;;;;;;;;;5021601;28;20071;-86
2023/12/18 02:37:40;;;;;;;14.95;7.85;;;;;;;;;;5025260;28;20045;-86
2023/12/18 02:40:07;;;;;;;12.85;7.78;;;;;;;;;;5026326;28;20065;-87
2023/12/18 02:42:33;;;;;;;8.63;5.00;;;;;;;;;;5027741;28;20040;-85
2023/12/18 02:44:59;;;;;;;18.02;8.30;;;;;;;;;;5009653;28;20518;-86
2023/12/18 02:47:25;;;;;;;6.40;4.03;;;;;;;;;;5024252;28;20499;-86
2023/12/18 02:49:51;;;;;;;13.93;4.72;;;;;;;;;;5024801;28;20065;-87
2023/12/18 02:52:17;;;;;;;13.18;6.38;;;;;;;;;;5027189;28;20404;-87
2023/12/18 02:54:43;;;;;;;13.02;6.63;;;;;;;;;;5023065;28;20038;-86
2023/12/18 02:57:09;;;;;;;12.32;6.10;;;;;;;;;;5026898;28;20040;-86
2023/12/18 02:59:35;;;;;;;11.18;5.13;;;;;;;;;;5027603;28;20079;-86
2023/12/18 03:02:01;;;;;;;10.60;5.85;;;;;;;;;;5027966;28;20803;-86
2023/12/18 03:04:27;;;;;;;13.75;8.63;;;;;;;;;;5025638;28;20104;-86
2023/12/18 03:06:53;;;;;;;15.43;7.72;;;;;;;;;;5026422;28;20032;-86
2023/12/18 03:09:19;;;;;;;14.40;7.95;;;;;;;;;;5010906;28;20075;-87
2023/12/18 03:11:45;;;;;;;12.38;8.20;;;;;;;;;;5025035;28;20041;-87
2023/12/18 03:14:11;;;;;;;14.68;8.18;;;;;;;;;;5027487;28;20549;-86
2023/12/18 03:16:38;;;;;;;14.27;7.03;;;;;;;;;;5025686;28;20037;-86
2023/12/18 03:19:04;;;;;;;17.35;9.13;;;;;;;;;;5004338;28;20378;-87
2023/12/18 03:21:30;;;;;;;16.40;7.35;;;;;;;;;;5028657;28;20064;-86
2023/12/18 03:23:56;;;;;;;8.70;6.38;;;;;;;;;;5005727;28;20042;-87
2023/12/18 03:26:22;;;;;;;16.17;7.82;;;;;;;;;;4997730;28;20065;-86
2023/12/18 03:28:48;;;;;;;13.05;7.07;;;;;;;;;;5005837;28;20120;-87
2023/12/18 03:31:14;;;;;;;16.38;8.57;;;;;;;;;;5002846;28;20068;-87
2023/12/18 03:33:41;;;;;;;16.95;9.07;;;;;;;;;;4994124;28;20080;-87
2023/12/18 03:36:07;;;;;;;14.38;7.47;;;;;;;;;;5009546;28;20061;-86
2023/12/18 03:38:33;;;;;;;16.67;9.40;;;;;;;;;;5008199;28;20046;-86
2023/12/18 03:40:59;;;;;;;13.75;8.45;;;;;;;;;;5004413;28;20117;-86
2023/12/18 03:43:26;;;;;;;19.77;9.88;;;;;;;;;;5009739;28;20042;-87
2023/12/18 03:45:52;;;;;;;15.07;7.70;;;;;;;;;;5005789;28;20104;-87
2023/12/18 03:48:21;;;;;;;14.52;8.13;;;;;;;;;;5006293;28;20090;-87
2023/12/18 03:50:47;;;;;;;18.30;8.63;;;;;;;;;;4992907;28;20397;-87
2023/12/18 03:53:13;;;;;;;13.40;8.75;;;;;;;;;;5004480;28;20045;-87
2023/12/18 03:55:39;;;;;;;12.43;8.02;;;;;;;;;;4989601;28;20038;-87
2023/12/18 03:58:05;;;;;;;13.52;7.72;;;;;;;;;;5006215;28;20513;-86
2023/12/18 04:00:31;;;;;;;12.75;7.57;;;;;;;;;;4992163;28;20547;-87
2023/12/18 04:02:57;;;;;;;18.63;9.90;;;;;;;;;;5005027;28;20038;-87
2023/12/18 04:05:24;;;;;;;13.43;7.80;;;;;;;;;;4993878;28;20409;-86
2023/12/18 04:07:50;;;;;;;22.88;11.95;;;;;;;;;;5006518;28;20035;-86
2023/12/18 04:10:16;;;;;;;17.15;8.93;;;;;;;;;;5011295;28;20081;-86
2023/12/18 04:12:42;;;;;;;16.15;9.57;;;;;;;;;;5006961;28;20519;-87
2023/12/18 04:15:09;;;;;;;15.50;9.02;;;;;;;;;;5008525;28;20046;-87
2023/12/18 04:17:36;;;;;;;15.93;8.98;;;;;;;;;;5019407;28;20050;-87
2023/12/18 04:20:02;;;;;;;15.38;8.88;;;;;;;;;;5004406;28;20049;-86
2023/12/18 04:22:28;;;;;;;15.40;8.90;;;;;;;;;;5011748;28;20110;-86
2023/12/18 04:24:54;;;;;;;11.95;6.47;;;;;;;;;;5004854;28;20050;-86
2023/12/18 04:27:20;;;;;;;17.55;8.32;;;;;;;;;;4988562;28;20042;-87
2023/12/18 04:29:46;;;;;;;10.80;6.63;;;;;;;;;;5002302;28;20042;-86
2023/12/18 04:32:12;;;;;;;9.40;6.22;;;;;;;;;;4990241;28;20034;-87
2023/12/18 04:34:39;;;;;;;17.15;9.82;;;;;;;;;;4993122;28;20085;-87
2023/12/18 04:37:05;;;;;;;17.10;9.40;;;;;;;;;;4994186;28;20501;-87
2023/12/18 04:39:32;;;;;;;15.48;8.77;;;;;;;;;;5005434;28;20131;-87
2023/12/18 04:41:58;;;;;;;15.88;7.63;;;;;;;;;;4989674;28;20038;-87
2023/12/18 04:44:24;;;;;;;16.45;9.50;;;;;;;;;;5005474;28;20447;-87
2023/12/18 04:46:51;;;;;;;19.02;9.07;;;;;;;;;;5007091;28;20505;-87
2023/12/18 04:49:17;;;;;;;12.48;7.72;;;;;;;;;;5004220;28;20084;-87
2023/12/18 04:51:43;;;;;;;13.88;8.60;;;;;;;;;;5005006;28;20065;-87
2023/12/18 04:54:10;;;;;;;17.75;9.00;;;;;;;;;;5002285;28;20038;-86
2023/12/18 04:56:36;;;;;;;16.52;7.95;;;;;;;;;;4985891;28;20040;-87
2023/12/18 04:59:02;;;;;;;11.68;6.05;;;;;;;;;;5021327;28;20038;-87
2023/12/18 05:01:28;;;;;;;12.32;7.30;;;;;;;;;;5004984;28;20049;-87
2023/12/18 05:03:54;;;;;;;13.50;7.90;;;;;;;;;;5001151;28;20100;-86
2023/12/18 05:06:24;;;;;;;12.18;7.40;;;;;;;;;;4987735;28;20050;-86
2023/12/18 05:08:51;;;;;;;12.32;5.32;;;;;;;;;;5004718;28;20038;-87
2023/12/18 05:11:18;;;;;;;14.35;8.68;;;;;;;;;;4988849;28;20045;-87
2023/12/18 05:13:44;;;;;;;14.05;7.80;;;;;;;;;;4986727;28;20049;-86
2023/12/18 05:16:10;;;;;;;14.30;7.90;;;;;;;;;;5006442;28;20065;-87
2023/12/18 05:18:36;;;;;;;14.63;7.82;;;;;;;;;;4987503;28;20049;-87
2023/12/18 05:21:03;;;;;;;16.67;8.32;;;;;;;;;;5011574;28;20057;-87
2023/12/18 05:23:29;;;;;;;13.05;7.03;;;;;;;;;;5027771;28;20037;-87
2023/12/18 05:25:55;;;;;;;11.27;7.15;;;;;;;;;;5007693;28;20048;-87
2023/12/18 05:28:21;;;;;;;13.57;7.93;;;;;;;;;;5011336;28;20115;-87
2023/12/18 05:30:47;;;;;;;9.35;5.13;;;;;;;;;;5012292;28;20037;-87
2023/12/18 05:33:13;;;;;;;12.52;6.45;;;;;;;;;;5007541;28;20074;-86
2023/12/18 05:35:39;;;;;;;13.40;7.60;;;;;;;;;;5024466;28;20034;-86
2023/12/18 05:38:08;;;;;;;17.92;9.68;;;;;;;;;;5027687;28;20083;-87
2023/12/18 05:40:35;;;;;;;13.82;7.47;;;;;;;;;;5008287;28;20041;-87
2023/12/18 05:43:01;;;;;;;14.52;7.93;;;;;;;;;;5024391;28;20041;-87
2023/12/18 05:45:27;;;;;;;12.48;7.90;;;;;;;;;;5023429;28;20048;-86
2023/12/18 05:47:53;;;;;;;14.43;8.60;;;;;;;;;;5021188;28;20117;-87
2023/12/18 05:50:19;;;;;;;17.00;8.52;;;;;;;;;;5022766;28;20449;-87
2023/12/18 05:52:45;;;;;;;13.85;8.25;;;;;;;;;;5011273;28;20064;-87
2023/12/18 05:55:11;;;;;;;17.13;8.88;;;;;;;;;;5008631;28;20108;-87
2023/12/18 05:57:38;;;;;;;14.75;8.40;;;;;;;;;;5005933;28;20037;-87
2023/12/18 06:00:05;;;;;;;12.00;8.02;;;;;;;;;;5004249;28;20108;-87
2023/12/18 06:02:31;;;;;;;11.00;7.38;;;;;;;;;;5004037;28;20042;-86
2023/12/18 06:04:57;;;;;;;14.95;8.23;;;;;;;;;;5023245;28;20042;-87
2023/12/18 06:07:23;;;;;;;14.95;8.95;;;;;;;;;;5006925;28;20524;-86
2023/12/18 06:09:49;;;;;;;14.57;9.15;;;;;;;;;;5007646;28;20405;-86
2023/12/18 06:12:15;;;;;;;13.20;8.00;;;;;;;;;;5023474;28;20393;-87
2023/12/18 06:14:41;;;;;;;11.43;7.47;;;;;;;;;;5021342;28;20038;-86
2023/12/18 06:17:07;;;;;;;14.23;9.07;;;;;;;;;;5005298;28;20040;-87
2023/12/18 06:19:34;;;;;;;15.88;8.35;;;;;;;;;;5023325;28;20120;-87
2023/12/18 06:22:01;;;;;;;22.85;9.40;;;;;;;;;;5025856;28;20456;-86
2023/12/18 06:24:27;;;;;;;12.27;7.57;;;;;;;;;;5005337;28;20041;-85
2023/12/18 06:26:53;;;;;;;13.63;8.38;;;;;;;;;;5026409;28;20124;-90
2023/12/18 06:29:19;;;;;;;17.25;8.57;;;;;;;;;;5006535;28;20037;-88
2023/12/18 06:31:45;;;;;;;16.05;8.40;;;;;;;;;;5020271;28;20038;-89
2023/12/18 06:34:12;;;;;;;14.57;7.35;;;;;;;;;;5022892;28;20401;-87
2023/12/18 06:36:38;;;;;;;15.98;8.23;;;;;;;;;;5003435;28;20052;-88
2023/12/18 06:39:04;;;;;;;13.63;8.23;;;;;;;;;;5005062;28;20469;-90
2023/12/18 06:41:30;;;;;;;12.43;7.78;;;;;;;;;;5025480;28;20045;-89
2023/12/18 06:43:56;;;;;;;14.63;8.65;;;;;;;;;;5012422;28;20037;-88
2023/12/18 06:46:22;;;;;;;12.57;7.30;;;;;;;;;;5026099;28;20046;-89
2023/12/18 06:48:48;;;;;;;12.30;7.93;;;;;;;;;;5006438;28;20120;-87
2023/12/18 06:51:15;;;;;;;18.55;7.72;;;;;;;;;;5011406;28;20200;-90
2023/12/18 06:53:41;;;;;;;12.93;7.07;;;;;;;;;;5024488;28;20405;-88
2023/12/18 06:56:08;;;;;;;13.02;6.97;;;;;;;;;;5027128;28;20559;-90
2023/12/18 06:58:34;;;;;;;15.57;7.78;;;;;;;;;;5015550;28;20041;-88
2023/12/18 07:01:00;;;;;;;14.05;6.07;;;;;;;;;;5009599;28;20041;-89
2023/12/18 07:03:27;;;;;;;12.13;7.45;;;;;;;;;;4998317;28;20042;-90
2023/12/18 07:05:53;;;;;;;11.95;7.40;;;;;;;;;;5005426;28;20041;-89
2023/12/18 07:08:19;;;;;;;14.63;7.68;;;;;;;;;;5037608;28;20049;-90
2023/12/18 07:10:45;;;;;;;14.93;9.40;;;;;;;;;;5027277;28;20061;-90
2023/12/18 07:13:11;;;;;;;15.80;7.75;;;;;;;;;;5040930;28;20462;-91
2023/12/18 07:15:37;;;;;;;21.95;10.48;;;;;;;;;;5026458;28;20065;-89
2023/12/18 07:18:07;;;;;;;15.43;9.23;;;;;;;;;;5032837;28;20029;-90
2023/12/18 07:20:33;;;;;;;14.63;10.02;;;;;;;;;;5028086;28;20056;-88
2023/12/18 07:22:59;;;;;;;11.70;7.43;;;;;;;;;;5039566;28;20053;-88
2023/12/18 07:25:25;;;;;;;12.68;8.23;;;;;;;;;;5044019;28;20100;-89
2023/12/18 07:27:51;;;;;;;17.20;8.80;;;;;;;;;;5022182;28;20041;-89
2023/12/18 07:30:17;;;;;;;15.50;7.80;;;;;;;;;;5025303;28;20064;-88
2023/12/18 07:32:43;;;;;;;15.55;9.05;;;;;;;;;;5027461;28;20044;-87
2023/12/18 07:35:10;;;;;;;17.35;9.57;;;;;;;;;;5040402;28;20075;-88
2023/12/18 07:37:36;;;;;;;18.05;9.40;;;;;;;;;;5026027;28;20045;-88
2023/12/18 07:40:03;;;;;;;14.18;8.43;;;;;;;;;;5027393;28;20047;-87
2023/12/18 07:42:29;;;;;;;17.95;9.73;;;;;;;;;;5034997;28;20045;-88
2023/12/18 07:44:55;;;;;;;17.30;10.30;;;;;;;;;;5025364;28;20037;-87
2023/12/18 07:47:21;;;;;;;14.68;7.07;;;;;;;;;;5004435;28;20044;-85
2023/12/18 07:49:48;;;;;;;19.50;10.93;;;;;;;;;;5024942;28;20125;-86
2023/12/18 07:52:14;;;;;;;15.02;8.07;;;;;;;;;;5009273;28;20128;-86
2023/12/18 07:54:41;;;;;;;15.55;8.70;;;;;;;;;;5029941;28;20072;-86
2023/12/18 07:57:07;;;;;;;17.63;9.73;;;;;;;;;;5011279;28;20564;-85
2023/12/18 07:59:36;;;;;;;17.60;9.25;;;;;;;;;;5033836;28;20076;-84
2023/12/18 08:02:02;;;;;;;19.73;10.15;;;;;;;;;;5028922;28;20059;-84
2023/12/18 08:04:28;;;;;;;13.80;7.47;;;;;;;;;;5044897;28;20059;-84
2023/12/18 08:06:54;;;;;;;21.85;11.38;;;;;;;;;;5042830;28;20180;-84
2023/12/18 08:09:20;;;;;;;19.80;10.35;;;;;;;;;;5051279;28;20404;-84
2023/12/18 08:11:46;;;;;;;20.00;10.50;;;;;;;;;;5030661;28;20125;-85
2023/12/18 08:14:12;;;;;;;18.70;10.10;;;;;;;;;;5026631;28;20037;-85
2023/12/18 08:16:38;;;;;;;19.60;11.55;;;;;;;;;;5032108;28;20483;-87
2023/12/18 08:19:05;;;;;;;18.88;10.80;;;;;;;;;;5006782;28;20051;-84
2023/12/18 08:21:31;;;;;;;22.30;11.60;;;;;;;;;;5026002;28;20048;-84
2023/12/18 08:23:57;;;;;;;20.77;11.38;;;;;;;;;;5030325;28;20053;-84
2023/12/18 08:26:23;;;;;;;21.25;11.32;;;;;;;;;;5050328;28;20052;-84
2023/12/18 08:28:49;;;;;;;19.60;11.95;;;;;;;;;;5030252;28;20502;-83
2023/12/18 08:31:15;;;;;;;24.27;14.00;;;;;;;;;;5036547;28;20063;-83
2023/12/18 08:33:41;;;;;;;19.55;9.70;;;;;;;;;;5010193;28;20044;-84
2023/12/18 08:36:08;;;;;;;20.90;11.52;;;;;;;;;;5011156;28;20045;-84
2023/12/18 08:38:34;;;;;;;29.25;14.32;;;;;;;;;;5029836;28;20037;-84
2023/12/18 08:41:00;;;;;;;23.45;13.15;;;;;;;;;;5028020;28;20033;-84
2023/12/18 08:43:26;;;;;;;20.60;11.32;;;;;;;;;;5030966;28;20041;-84
2023/12/18 08:45:52;;;;;;;24.88;12.75;;;;;;;;;;5041812;28;20036;-84
2023/12/18 08:48:18;;;;;;;24.98;12.23;;;;;;;;;;5044227;28;20145;-86
2023/12/18 08:50:44;;;;;;;18.83;10.38;;;;;;;;;;5031320;28;20040;-87
2023/12/18 08:53:10;;;;;;;20.80;12.18;;;;;;;;;;5012612;28;20044;-84
2023/12/18 08:55:39;;;;;;;19.42;11.25;;;;;;;;;;5027961;28;20045;-87
2023/12/18 08:58:08;;;;;;;18.17;10.43;;;;;;;;;;5025300;28;20045;-86
2023/12/18 09:00:35;;;;;;;18.05;10.02;;;;;;;;;;5026794;28;20063;-87
2023/12/18 09:03:01;;;;;;;19.48;9.90;;;;;;;;;;5016428;28;20037;-86
2023/12/18 09:05:28;;;;;;;15.82;9.57;;;;;;;;;;5030038;28;20120;-85
2023/12/18 09:07:54;;;;;;;17.40;9.05;;;;;;;;;;5014570;28;20045;-86
2023/12/18 09:10:22;;;;;;;16.20;9.07;;;;;;;;;;5005920;28;20049;-89
2023/12/18 09:12:57;;;;;;;15.52;9.40;;;;;;;;;;5013006;28;20040;-87
2023/12/18 09:15:23;;;;;;;20.63;11.10;;;;;;;;;;5030187;28;20037;-87
2023/12/18 09:17:49;;;;;;;15.00;9.27;;;;;;;;;;5027429;28;20057;-88
2023/12/18 09:20:15;;;;;;;18.85;10.98;;;;;;;;;;5018855;28;20048;-88
2023/12/18 09:22:42;;;;;;;15.15;10.02;;;;;;;;;;5042650;28;20420;-88
2023/12/18 09:25:08;;;;;;;17.08;9.20;;;;;;;;;;5034612;28;20053;-85
2023/12/18 09:27:34;;;;;;;20.30;9.35;;;;;;;;;;5043703;28;20056;-85
2023/12/18 09:30:00;;;;;;;22.08;11.15;;;;;;;;;;5045095;28;20041;-85
2023/12/18 09:32:26;;;;;;;15.77;9.73;;;;;;;;;;5045489;28;20045;-84
2023/12/18 09:34:52;;;;;;;20.27;12.20;;;;;;;;;;5044562;28;20029;-84
2023/12/18 09:37:18;;;;;;;16.70;9.00;;;;;;;;;;5029857;28;20104;-86
2023/12/18 09:39:44;;;;;;;18.70;9.95;;;;;;;;;;5039086;28;20050;-84
2023/12/18 09:42:11;;;;;;;19.20;11.18;;;;;;;;;;5030514;28;20036;-86
2023/12/18 09:44:38;;;;;;;20.27;11.40;;;;;;;;;;5031743;28;20048;-86
2023/12/18 09:47:04;;;;;;;20.83;11.43;;;;;;;;;;5026653;28;20122;-88
2023/12/18 09:49:30;;;;;;;14.95;10.75;;;;;;;;;;5031529;28;20483;-86
2023/12/18 09:52:11;;;;;;;15.70;8.60;;;;;;;;;;5020577;28;20048;-85
2023/12/18 09:54:39;;;;;;;17.08;9.38;;;;;;;;;;5034185;28;20061;-83
2023/12/18 09:57:06;;;;;;;13.05;7.88;;;;;;;;;;5049737;28;20044;-83
2023/12/18 09:59:33;;;;;;;16.13;10.25;;;;;;;;;;5053628;28;20041;-82
2023/12/18 10:01:59;;;;;;;15.38;9.93;;;;;;;;;;5047346;28;20036;-82
2023/12/18 10:04:25;;;;;;;20.67;11.13;;;;;;;;;;5050290;28;20045;-82
2023/12/18 10:06:51;;;;;;;26.70;12.07;;;;;;;;;;5050183;28;20542;-81
2023/12/18 10:09:18;;;;;;;17.85;9.05;;;;;;;;;;5053431;28;20534;-82
2023/12/18 10:11:47;;;;;;;20.45;11.40;;;;;;;;;;5049043;28;20100;-82
2023/12/18 10:14:17;;;;;;;19.90;12.15;;;;;;;;;;5029838;28;20519;-81
2023/12/18 10:16:43;;;;;;;24.58;14.02;;;;;;;;;;5032516;28;20048;-81
2023/12/18 10:19:10;;;;;;;21.95;11.68;;;;;;;;;;5049995;28;20042;-82
2023/12/18 10:21:39;;;;;;;19.35;11.48;;;;;;;;;;5024303;28;20054;-81
2023/12/18 10:24:06;;;;;;;26.20;13.23;;;;;;;;;;5050803;28;20496;-82
2023/12/18 10:26:32;;;;;;;18.75;11.10;;;;;;;;;;5036241;28;20053;-82
2023/12/18 10:28:58;;;;;;;24.33;12.88;;;;;;;;;;5048635;28;20102;-81
2023/12/18 10:31:25;;;;;;;21.63;11.63;;;;;;;;;;5049639;28;20565;-82
2023/12/18 10:33:52;;;;;;;22.42;10.95;;;;;;;;;;5055793;28;20072;-82
2023/12/18 10:36:18;;;;;;;22.38;9.90;;;;;;;;;;5053110;28;20036;-82
2023/12/18 10:38:49;;;;;;;19.60;11.00;;;;;;;;;;5051296;28;20037;-82
2023/12/18 10:41:18;;;;;;;18.10;11.02;;;;;;;;;;5052036;28;20041;-82
2023/12/18 10:43:44;;;;;;;20.45;13.10;;;;;;;;;;5051874;28;20036;-82
2023/12/18 10:46:11;;;;;;;25.25;11.48;;;;;;;;;;5052743;28;20072;-81
2023/12/18 10:48:38;;;;;;;24.13;13.00;;;;;;;;;;5028836;28;20095;-81
2023/12/18 10:51:04;;;;;;;23.63;12.85;;;;;;;;;;5037237;28;20591;-82
2023/12/18 10:53:33;;;;;;;22.50;11.75;;;;;;;;;;5060629;28;20041;-82
2023/12/18 10:56:01;;;;;;;13.45;7.63;;;;;;;;;;5062969;28;20049;-82
2023/12/18 10:58:27;;;;;;;19.83;11.25;;;;;;;;;;5066546;23;20049;-81
2023/12/18 11:00:53;;;;;;;18.83;11.73;;;;;;;;;;5033718;28;20037;-82
2023/12/18 11:03:26;;;;;;;28.90;14.63;;;;;;;;;;5033358;28;20044;-82
2023/12/18 11:05:54;;;;;;;21.55;12.15;;;;;;;;;;5032993;28;20068;-82
2023/12/18 11:08:20;;;;;;;21.02;11.85;;;;;;;;;;5049407;28;20059;-82
2023/12/18 11:10:46;;;;;;;18.73;10.90;;;;;;;;;;5041905;28;20033;-82
2023/12/18 11:13:12;;;;;;;22.02;12.82;;;;;;;;;;5020937;28;20064;-82
2023/12/18 11:15:49;;;;;;;19.52;11.00;;;;;;;;;;5029748;28;20045;-82
2023/12/18 11:18:26;;;;;;;22.02;13.23;;;;;;;;;;5041408;28;20125;-82
2023/12/18 11:20:52;;;;;;;24.08;12.75;;;;;;;;;;5033642;28;20053;-82
2023/12/18 11:23:18;;;;;;;21.70;13.02;;;;;;;;;;5029953;28;20060;-82
2023/12/18 11:25:48;;;;;;;24.25;11.75;;;;;;;;;;5053311;28;20044;-82
2023/12/18 11:28:18;;;;;;;23.33;12.50;;;;;;;;;;5030054;28;20104;-82
2023/12/18 11:30:44;;;;;;;22.30;12.65;;;;;;;;;;5055427;28;20116;-82
2023/12/18 11:33:11;;;;;;;21.73;13.18;;;;;;;;;;5036163;28;20068;-81
2023/12/18 11:35:38;;;;;;;19.67;13.38;;;;;;;;;;5036512;28;20072;-82
2023/12/18 11:38:08;;;;;;;16.73;9.75;;;;;;;;;;5036964;28;20036;-82
2023/12/18 11:40:35;;;;;;;21.98;12.23;;;;;;;;;;5038879;28;20051;-82
2023/12/18 11:43:01;;;;;;;20.27;12.13;;;;;;;;;;5048307;28;20071;-82
2023/12/18 11:45:29;;;;;;;19.08;11.70;;;;;;;;;;5028204;28;20045;-82
2023/12/18 11:48:02;;;;;;;17.95;11.93;;;;;;;;;;5034889;28;20033;-82
2023/12/18 11:50:31;;;;;;;22.77;12.82;;;;;;;;;;5042657;28;20048;-82
2023/12/18 11:52:58;;;;;;;17.52;11.82;;;;;;;;;;5063664;28;20049;-82
2023/12/18 11:55:39;;;;;;;18.02;10.18;;;;;;;;;;5041758;28;20046;-82
2023/12/18 11:58:06;;;;;;;20.08;10.32;;;;;;;;;;5045944;28;20068;-82
2023/12/18 12:00:33;;;;;;;21.67;12.73;;;;;;;;;;5037043;28;20144;-82
2023/12/18 12:02:59;;;;;;;20.27;11.40;;;;;;;;;;5050794;28;20044;-82
2023/12/18 12:05:25;;;;;;;13.65;9.32;;;;;;;;;;5050851;28;20442;-83
2023/12/18 12:07:51;;;;;;;26.33;13.50;;;;;;;;;;5052815;28;20481;-84
2023/12/18 12:10:17;;;;;;;17.27;11.65;;;;;;;;;;5039349;28;20041;-83
2023/12/18 12:12:44;;;;;;;20.75;14.05;;;;;;;;;;5039859;28;20053;-83
2023/12/18 12:15:10;;;;;;;18.15;10.10;;;;;;;;;;5046996;28;20037;-82
2023/12/18 12:17:36;;;;;;;21.30;11.75;;;;;;;;;;5050288;28;20068;-83
2023/12/18 12:20:07;;;;;;;15.57;8.88;;;;;;;;;;5049406;28;20047;-83
2023/12/18 12:22:36;;;;;;;6.15;5.13;;;;;;;;;;5055465;28;20102;-82
2023/12/18 12:25:02;;;;;;;17.65;7.72;;;;;;;;;;5048332;28;20033;-82
2023/12/18 12:27:30;;;;;;;27.17;13.75;;;;;;;;;;5045429;28;20041;-83
2023/12/18 12:29:56;;;;;;;14.40;7.35;;;;;;;;;;5044676;28;20404;-82
2023/12/18 12:32:22;;;;;;;11.05;6.43;;;;;;;;;;5047250;28;20045;-82
2023/12/18 12:34:48;;;;;;;18.98;10.68;;;;;;;;;;5054597;28;20062;-82
2023/12/18 12:37:14;;;;;;;15.50;8.93;;;;;;;;;;5037015;28;20060;-83
2023/12/18 12:39:59;;;;;;;15.05;9.75;;;;;;;;;;5032808;28;20496;-83
2023/12/18 12:42:26;;;;;;;16.48;6.18;;;;;;;;;;5048022;28;20049;-82
2023/12/18 12:44:51;;;;;;;44.78;16.05;;;;;;;;;;5031783;28;20539;-82
2023/12/18 12:47:17;;;;;;;16.38;9.93;;;;;;;;;;5049852;28;20045;-82
2023/12/18 12:49:46;;;;;;;20.38;11.65;;;;;;;;;;5032097;28;20492;-82
2023/12/18 12:52:13;;;;;;;21.48;12.43;;;;;;;;;;5036090;28;20111;-82
2023/12/18 12:54:39;;;;;;;6.57;4.38;;;;;;;;;;5036467;28;20116;-83
2023/12/18 12:57:08;;;;;;;15.38;9.43;;;;;;;;;;5048577;28;20466;-86
2023/12/18 12:59:34;;;;;;;12.75;6.40;;;;;;;;;;5026192;28;20045;-86
2023/12/18 13:02:00;;;;;;;20.38;8.75;;;;;;;;;;5027026;28;20038;-86
2023/12/18 13:04:26;;;;;;;15.88;10.70;;;;;;;;;;5029320;28;20480;-86
2023/12/18 13:06:52;;;;;;;10.65;7.22;;;;;;;;;;5031859;28;20041;-86
2023/12/18 13:09:18;;;;;;;23.42;13.63;;;;;;;;;;5033233;28;20040;-87
2023/12/18 13:11:44;;;;;;;8.63;5.35;;;;;;;;;;5028584;28;20041;-87
2023/12/18 13:14:10;;;;;;;19.30;12.48;;;;;;;;;;5027238;28;20045;-86
2023/12/18 13:16:36;;;;;;;12.90;7.03;;;;;;;;;;5026556;28;20430;-85
2023/12/18 13:19:02;;;;;;;4.80;4.30;;;;;;;;;;5041991;28;20041;-86
2023/12/18 13:21:28;;;;;;;17.83;11.65;;;;;;;;;;5027463;28;20096;-87
2023/12/18 13:23:54;;;;;;;20.20;10.02;;;;;;;;;;5024457;28;20116;-85
2023/12/18 13:26:20;;;;;;;13.15;6.85;;;;;;;;;;5024441;28;20441;-85
2023/12/18 13:28:46;;;;;;;18.98;11.25;;;;;;;;;;5044263;28;20049;-86
2023/12/18 13:31:12;;;;;;;21.10;10.40;;;;;;;;;;5028644;28;20555;-86
2023/12/18 13:33:38;;;;;;;17.10;10.60;;;;;;;;;;5049124;28;20036;-86
2023/12/18 13:36:04;;;;;;;15.77;9.10;;;;;;;;;;5031016;28;20492;-86
2023/12/18 13:38:30;;;;;;;14.15;8.80;;;;;;;;;;5030753;28;20373;-87
2023/12/18 13:40:56;;;;;;;12.80;7.45;;;;;;;;;;5040975;28;20041;-85
2023/12/18 13:43:22;;;;;;;16.48;9.38;;;;;;;;;;5058450;28;20040;-86
2023/12/18 13:45:48;;;;;;;18.55;8.55;;;;;;;;;;5055640;28;20045;-85
2023/12/18 13:48:14;;;;;;;14.27;6.47;;;;;;;;;;5052648;28;20041;-86
2023/12/18 13:50:40;;;;;;;18.73;9.90;;;;;;;;;;5044582;28;20049;-85
2023/12/18 13:53:06;;;;;;;20.40;11.13;;;;;;;;;;5028096;28;20037;-86
2023/12/18 13:55:32;;;;;;;17.15;9.68;;;;;;;;;;5042844;28;20180;-86
2023/12/18 13:57:58;;;;;;;18.58;8.00;;;;;;;;;;5027990;28;20171;-85
2023/12/18 14:00:24;;;;;;;18.73;10.20;;;;;;;;;;5030504;28;20077;-87
2023/12/18 14:02:50;;;;;;;21.40;10.25;;;;;;;;;;5029468;28;20041;-88
2023/12/18 14:05:17;;;;;;;13.90;8.85;;;;;;;;;;5022721;28;20033;-88
2023/12/18 14:07:43;;;;;;;21.40;13.10;;;;;;;;;;5029932;28;20385;-88
2023/12/18 14:10:09;;;;;;;15.80;10.45;;;;;;;;;;5024597;28;20037;-88
2023/12/18 14:12:35;;;;;;;20.73;11.88;;;;;;;;;;5030445;28;20408;-87
2023/12/18 14:15:01;;;;;;;14.55;9.85;;;;;;;;;;5027743;28;20060;-88
2023/12/18 14:17:27;;;;;;;18.92;11.43;;;;;;;;;;5025957;28;20119;-88
2023/12/18 14:19:55;;;;;;;12.38;8.77;;;;;;;;;;5026754;28;20037;-88
2023/12/18 14:22:20;;;;;;;9.80;5.35;;;;;;;;;;5026620;28;20497;-88